Time;durP1;ratioP1;P1;durP2;ratioP2;P2;SDS_P1;SDS_P2;PMS_P1;PMS_P2;Temp;Humidity;BMP_temperature;BMP_pressure;BME280_temperature;BME280_humidity;BME280_pressure;Samples;Min_cycle;Max_cycle;Signal;HPM_P1;HPM_P2
2023/05/13 00:01:03;;;;;;;9.43;8.18;;;;;;;16.43;59.79;101928.41;5024901;28;20111;-64
2023/05/13 00:03:29;;;;;;;10.48;8.77;;;;;;;16.39;60.02;101924.47;5032276;28;20033;-64
2023/05/13 00:05:54;;;;;;;10.52;8.50;;;;;;;16.41;60.23;101924.19;5031889;28;20022;-64
2023/05/13 00:08:19;;;;;;;10.18;8.77;;;;;;;16.40;60.16;101928.09;5030680;28;20452;-64
2023/05/13 00:10:45;;;;;;;9.45;8.00;;;;;;;16.38;59.78;101925.53;5020404;28;20112;-64
2023/05/13 00:13:10;;;;;;;9.48;8.18;;;;;;;16.36;59.77;101922.19;5012009;28;20030;-64
2023/05/13 00:15:35;;;;;;;10.85;8.32;;;;;;;16.34;59.51;101929.16;5008048;28;20492;-65
2023/05/13 00:18:01;;;;;;;10.40;8.40;;;;;;;16.31;59.77;101924.94;5012347;28;20034;-65
2023/05/13 00:20:26;;;;;;;8.85;7.97;;;;;;;16.30;59.81;101916.78;5010781;28;20033;-65
2023/05/13 00:22:51;;;;;;;10.25;8.38;;;;;;;16.30;59.97;101912.03;5012478;28;20029;-65
2023/05/13 00:25:17;;;;;;;9.30;8.38;;;;;;;16.33;60.08;101917.09;5022403;28;20033;-65
2023/05/13 00:27:42;;;;;;;12.35;8.38;;;;;;;16.33;59.85;101914.31;5028836;28;20461;-65
2023/05/13 00:30:08;;;;;;;9.63;8.40;;;;;;;16.30;60.11;101920.44;5022474;28;20043;-65
2023/05/13 00:32:33;;;;;;;11.82;7.88;;;;;;;16.28;59.43;101914.25;5022521;28;20075;-65
2023/05/13 00:34:58;;;;;;;11.13;8.05;;;;;;;16.22;59.95;101917.28;5031163;28;20391;-64
2023/05/13 00:37:24;;;;;;;10.25;8.30;;;;;;;16.24;60.40;101915.06;5019182;28;20105;-65
2023/05/13 00:39:49;;;;;;;8.90;8.00;;;;;;;16.17;59.21;101918.91;5010947;28;20549;-65
2023/05/13 00:42:14;;;;;;;9.93;7.78;;;;;;;16.18;59.21;101914.16;5023406;28;20049;-65
2023/05/13 00:44:40;;;;;;;9.55;8.32;;;;;;;16.13;59.74;101916.91;5028061;28;20029;-65
2023/05/13 00:47:05;;;;;;;8.98;7.80;;;;;;;16.13;59.85;101916.91;5011356;28;20022;-65
2023/05/13 00:49:32;;;;;;;9.18;8.38;;;;;;;16.13;59.68;101920.56;5012939;28;20500;-65
2023/05/13 00:51:58;;;;;;;10.45;8.27;;;;;;;16.12;59.49;101926.44;5011453;28;20417;-65
2023/05/13 00:54:23;;;;;;;8.60;7.80;;;;;;;16.11;59.44;101927.53;5011414;28;20032;-65
2023/05/13 00:56:53;;;;;;;10.95;7.68;;;;;;;16.11;59.04;101925.59;5010775;28;20022;-65
2023/05/13 00:59:18;;;;;;;9.07;7.90;;;;;;;16.09;59.15;101918.56;5011204;28;20072;-65
2023/05/13 01:01:59;;;;;;;8.63;7.68;;;;;;;16.13;58.87;101926.16;5021397;28;20041;-65
2023/05/13 01:04:52;;;;;;;10.43;7.55;;;;;;;16.11;58.82;101925.59;5013139;28;20039;-65
2023/05/13 01:07:26;;;;;;;7.95;7.00;;;;;;;16.12;58.62;101921.66;5014535;28;20037;-64
2023/05/13 01:10:02;;;;;;;8.68;7.55;;;;;;;16.09;58.25;101921.34;5010256;28;20088;-65
2023/05/13 01:12:35;;;;;;;9.02;7.53;;;;;;;16.06;58.42;101922.72;5010919;28;20041;-65
2023/05/13 01:15:23;;;;;;;10.88;7.85;;;;;;;16.07;59.08;101926.34;5022166;28;20049;-65
2023/05/13 01:17:56;;;;;;;14.38;8.07;;;;;;;16.01;58.03;101914.28;5025937;28;20487;-65
2023/05/13 01:20:23;;;;;;;11.25;7.82;;;;;;;15.97;58.15;101924.31;5013138;28;20034;-65
2023/05/13 01:22:48;;;;;;;7.97;7.18;;;;;;;16.02;58.27;101912.31;5013901;28;20053;-65
2023/05/13 01:25:13;;;;;;;8.45;7.10;;;;;;;16.00;58.13;101922.94;5010549;28;20084;-65
2023/05/13 01:27:39;;;;;;;7.97;6.93;;;;;;;15.96;58.02;101917.03;5010646;28;20042;-65
2023/05/13 01:30:07;;;;;;;8.88;7.97;;;;;;;15.91;58.39;101920.59;5011039;28;20034;-65
2023/05/13 01:32:34;;;;;;;10.13;7.28;;;;;;;15.89;58.22;101916.38;5029601;28;20033;-65
2023/05/13 01:35:00;;;;;;;8.43;7.63;;;;;;;15.86;58.07;101914.94;5026803;28;20105;-64
2023/05/13 01:37:27;;;;;;;8.02;7.22;;;;;;;15.84;57.93;101924.72;5008713;28;20433;-65
2023/05/13 01:39:53;;;;;;;8.70;7.88;;;;;;;15.84;58.13;101919.97;5011277;28;20125;-65
2023/05/13 01:42:18;;;;;;;10.02;7.90;;;;;;;15.85;58.19;101921.66;5027127;28;20041;-65
2023/05/13 01:44:43;;;;;;;12.95;7.50;;;;;;;15.90;57.88;101923.66;5029809;28;20092;-65
2023/05/13 01:47:09;;;;;;;8.18;7.38;;;;;;;15.82;57.94;101922.16;5030172;28;20024;-64
2023/05/13 01:49:34;;;;;;;10.45;7.13;;;;;;;15.82;58.24;101922.16;5029252;28;20115;-65
2023/05/13 01:51:59;;;;;;;9.02;7.28;;;;;;;15.81;57.26;101926.09;5020091;28;20034;-65
2023/05/13 01:54:24;;;;;;;9.82;7.30;;;;;;;15.79;57.41;101925.50;5014077;28;20033;-65
2023/05/13 01:56:50;;;;;;;11.45;7.63;;;;;;;15.73;57.81;101925.72;5015992;28;20034;-65
2023/05/13 01:59:15;;;;;;;9.40;7.88;;;;;;;15.71;57.94;101928.75;5010175;28;20486;-65
2023/05/13 02:01:41;;;;;;;9.60;7.80;;;;;;;15.71;58.01;101931.56;5010634;28;20470;-65
2023/05/13 02:04:06;;;;;;;9.88;8.07;;;;;;;15.68;57.61;101921.75;5009839;28;20034;-65
2023/05/13 02:06:31;;;;;;;11.15;8.32;;;;;;;15.66;58.44;101920.31;5023275;28;20381;-65
2023/05/13 02:08:57;;;;;;;11.13;8.20;;;;;;;15.66;58.00;101923.09;5029743;28;20031;-65
2023/05/13 02:11:22;;;;;;;11.35;8.15;;;;;;;15.58;58.25;101924.38;5029911;28;20083;-65
2023/05/13 02:13:47;;;;;;;9.60;8.18;;;;;;;15.59;58.21;101925.22;5022486;28;20034;-64
2023/05/13 02:16:15;;;;;;;9.43;8.48;;;;;;;15.52;58.32;101918.97;5028246;28;20465;-65
2023/05/13 02:18:40;;;;;;;8.60;7.80;;;;;;;15.54;58.67;101930.75;5012199;28;20026;-65
2023/05/13 02:21:06;;;;;;;9.07;8.18;;;;;;;15.48;58.29;101915.84;5009522;28;20080;-65
2023/05/13 02:23:31;;;;;;;9.40;7.75;;;;;;;15.49;58.39;101922.31;5009698;28;20375;-65
2023/05/13 02:25:56;;;;;;;8.95;8.07;;;;;;;15.47;58.28;101925.34;5009501;28;20053;-65
2023/05/13 02:28:21;;;;;;;12.07;8.35;;;;;;;15.41;58.52;101926.41;5009015;28;20052;-65
2023/05/13 02:30:47;;;;;;;8.45;7.47;;;;;;;15.44;58.39;101925.84;5009630;28;20084;-65
2023/05/13 02:33:12;;;;;;;9.15;8.25;;;;;;;15.38;58.25;101921.31;5013881;28;20386;-65
2023/05/13 02:35:37;;;;;;;10.00;8.00;;;;;;;15.35;58.23;101928.28;5012496;28;20039;-65
2023/05/13 02:38:03;;;;;;;9.48;8.52;;;;;;;15.32;58.39;101925.13;5010321;28;20076;-65
2023/05/13 02:40:28;;;;;;;12.23;8.07;;;;;;;15.29;58.64;101923.72;5010255;28;20069;-64
2023/05/13 02:42:54;;;;;;;10.93;8.32;;;;;;;15.30;58.46;101924.56;5009449;28;20359;-65
2023/05/13 02:45:19;;;;;;;8.95;8.05;;;;;;;15.29;58.38;101922.84;5019401;28;20112;-65
2023/05/13 02:47:45;;;;;;;10.95;8.30;;;;;;;15.33;58.40;101921.25;5010831;28;20034;-65
2023/05/13 02:50:11;;;;;;;9.93;8.93;;;;;;;15.24;58.49;101920.84;5009176;28;20041;-65
2023/05/13 02:52:38;;;;;;;12.70;8.98;;;;;;;15.23;58.64;101916.34;5011014;28;20076;-66
2023/05/13 02:55:05;;;;;;;9.65;8.75;;;;;;;15.20;58.54;101916.88;5013303;28;20022;-65
2023/05/13 02:57:31;;;;;;;10.23;8.38;;;;;;;15.23;58.83;101910.75;5020759;28;20080;-64
2023/05/13 02:59:56;;;;;;;9.57;8.57;;;;;;;15.16;59.03;101919.34;5012923;28;20025;-65
2023/05/13 03:02:21;;;;;;;12.07;8.95;;;;;;;15.13;58.67;101911.47;5030948;28;20037;-65
2023/05/13 03:04:46;;;;;;;10.90;8.55;;;;;;;15.14;58.94;101912.31;5013544;28;20038;-65
2023/05/13 03:07:12;;;;;;;10.85;8.55;;;;;;;15.09;58.77;101909.44;5014336;28;20135;-65
2023/05/13 03:09:41;;;;;;;9.68;8.77;;;;;;;15.08;58.89;101910.53;5032405;28;20496;-65
2023/05/13 03:12:07;;;;;;;10.02;8.52;;;;;;;15.03;58.62;101913.28;5024169;28;20091;-65
2023/05/13 03:14:35;;;;;;;10.23;8.13;;;;;;;15.02;58.32;101918.03;5017856;28;20497;-65
2023/05/13 03:17:00;;;;;;;11.45;8.40;;;;;;;15.05;58.57;101913.84;5012668;28;20022;-65
2023/05/13 03:19:26;;;;;;;8.70;7.95;;;;;;;15.01;58.90;101913.50;5012532;28;20021;-65
2023/05/13 03:21:51;;;;;;;10.32;8.43;;;;;;;15.02;58.38;101908.78;5013458;28;20036;-65
2023/05/13 03:24:17;;;;;;;9.40;8.52;;;;;;;14.97;58.76;101917.94;5012848;28;20494;-65
2023/05/13 03:26:42;;;;;;;9.05;8.10;;;;;;;14.99;58.63;101918.53;5028455;28;20029;-65
2023/05/13 03:29:07;;;;;;;9.60;8.57;;;;;;;14.92;58.38;101921.50;5030595;28;20553;-65
2023/05/13 03:31:32;;;;;;;11.32;8.75;;;;;;;14.95;58.73;101922.94;5025077;28;20026;-65
2023/05/13 03:33:58;;;;;;;10.27;8.25;;;;;;;14.94;58.58;101916.50;5028221;28;20067;-65
2023/05/13 03:36:23;;;;;;;11.45;8.52;;;;;;;14.94;58.78;101922.09;5015754;28;20030;-65
2023/05/13 03:38:48;;;;;;;9.70;8.30;;;;;;;14.92;58.25;101917.84;5009853;28;20462;-65
2023/05/13 03:41:16;;;;;;;9.68;8.60;;;;;;;14.94;58.46;101930.50;5011347;28;20040;-65
2023/05/13 03:43:41;;;;;;;9.40;8.50;;;;;;;14.83;58.63;101927.78;5012618;28;20029;-66
2023/05/13 03:46:07;;;;;;;9.77;8.80;;;;;;;14.80;58.53;101919.91;5011525;28;20167;-65
2023/05/13 03:48:32;;;;;;;10.13;8.55;;;;;;;14.80;58.65;101923.53;5012693;28;20129;-66
2023/05/13 03:50:57;;;;;;;10.23;8.30;;;;;;;14.76;58.76;101930.75;5030534;28;20033;-65
2023/05/13 03:53:22;;;;;;;9.52;8.63;;;;;;;14.77;59.21;101938.03;5015238;28;20034;-65
2023/05/13 03:55:48;;;;;;;10.23;9.25;;;;;;;14.73;59.06;101936.84;5024670;28;20390;-65
2023/05/13 03:58:15;;;;;;;12.50;8.90;;;;;;;14.71;59.14;101941.84;5013867;28;20107;-65
2023/05/13 04:00:41;;;;;;;11.75;9.27;;;;;;;14.67;59.27;101943.47;5011607;28;20052;-65
2023/05/13 04:03:07;;;;;;;9.02;8.18;;;;;;;14.66;59.39;101933.41;5031613;28;20436;-65
2023/05/13 04:05:32;;;;;;;11.82;9.18;;;;;;;14.63;59.48;101942.28;5028216;28;20115;-65
2023/05/13 04:07:58;;;;;;;11.57;9.07;;;;;;;14.61;59.71;101936.09;5011888;28;20029;-65
2023/05/13 04:10:23;;;;;;;9.75;8.73;;;;;;;14.63;59.37;101942.28;5027936;28;20087;-65
2023/05/13 04:12:49;;;;;;;12.95;9.60;;;;;;;14.59;59.54;101943.88;5017321;28;20501;-65
2023/05/13 04:15:14;;;;;;;11.65;8.90;;;;;;;14.61;59.79;101945.31;5012115;28;20127;-65
2023/05/13 04:17:39;;;;;;;10.32;9.13;;;;;;;14.60;59.73;101946.41;5020554;28;20036;-65
2023/05/13 04:20:05;;;;;;;10.55;8.70;;;;;;;14.61;59.24;101944.47;5011539;28;20029;-65
2023/05/13 04:22:31;;;;;;;9.90;8.77;;;;;;;14.49;59.66;101937.00;5013454;28;20500;-66
2023/05/13 04:24:56;;;;;;;11.43;9.73;;;;;;;14.50;59.81;101940.66;5020824;28;20033;-67
2023/05/13 04:27:24;;;;;;;9.68;8.63;;;;;;;14.51;59.57;101936.78;5020667;28;20045;-66
2023/05/13 04:29:50;;;;;;;10.65;9.40;;;;;;;14.48;59.64;101940.88;5013990;28;20397;-66
2023/05/13 04:32:20;;;;;;;10.73;9.45;;;;;;;14.52;59.57;101949.63;5013585;28;20035;-66
2023/05/13 04:34:46;;;;;;;10.45;8.95;;;;;;;14.53;59.63;101947.69;5017390;28;20060;-66
2023/05/13 04:37:12;;;;;;;11.50;9.45;;;;;;;14.48;59.41;101943.66;5018598;28;20049;-66
2023/05/13 04:39:37;;;;;;;10.75;9.65;;;;;;;14.45;59.75;101949.75;5011131;28;21795;-66
2023/05/13 04:42:02;;;;;;;12.57;9.88;;;;;;;14.46;59.62;101948.69;5027515;28;20055;-66
2023/05/13 04:44:28;;;;;;;10.73;9.30;;;;;;;14.52;59.39;101951.59;5030086;28;20037;-66
2023/05/13 04:46:53;;;;;;;12.93;9.35;;;;;;;14.47;59.47;101955.09;5010923;28;20064;-66
2023/05/13 04:49:18;;;;;;;10.23;9.25;;;;;;;14.51;59.49;101955.47;5009227;28;20030;-66
2023/05/13 04:51:43;;;;;;;14.00;9.63;;;;;;;14.51;59.08;101947.94;5011828;28;20038;-67
2023/05/13 04:54:09;;;;;;;11.18;10.00;;;;;;;14.50;59.53;101957.41;5012369;28;20022;-66
2023/05/13 04:56:34;;;;;;;13.32;9.70;;;;;;;14.46;59.48;101957.06;5011989;28;21963;-65
2023/05/13 04:58:59;;;;;;;12.00;9.50;;;;;;;14.53;59.57;101958.84;5021508;28;20037;-66
2023/05/13 05:01:25;;;;;;;10.70;9.70;;;;;;;14.54;59.29;101957.75;5023537;28;20045;-67
2023/05/13 05:03:50;;;;;;;13.07;10.20;;;;;;;14.52;59.46;101969.19;5008422;28;20440;-67
2023/05/13 05:06:15;;;;;;;11.10;9.98;;;;;;;14.57;59.93;101971.22;5010631;28;20030;-68
2023/05/13 05:08:41;;;;;;;11.15;9.80;;;;;;;14.59;59.41;101966.25;5010241;28;20017;-67
2023/05/13 05:11:07;;;;;;;12.02;10.07;;;;;;;14.58;59.61;101970.13;5030988;28;20055;-66
2023/05/13 05:13:32;;;;;;;10.32;9.32;;;;;;;14.59;59.46;101966.25;5030756;28;20100;-67
2023/05/13 05:15:57;;;;;;;11.80;10.60;;;;;;;14.52;59.82;101969.19;5019508;28;20026;-66
2023/05/13 05:18:23;;;;;;;10.85;9.70;;;;;;;14.49;60.46;101969.69;5011928;28;20025;-67
2023/05/13 05:20:48;;;;;;;11.38;9.98;;;;;;;14.55;60.13;101979.03;5027574;28;20503;-67
2023/05/13 05:23:13;;;;;;;11.48;9.30;;;;;;;14.57;60.09;101983.25;5019308;28;20033;-67
2023/05/13 05:25:38;;;;;;;12.10;10.93;;;;;;;14.53;60.30;101978.41;5011065;28;20472;-66
2023/05/13 05:28:04;;;;;;;12.20;9.73;;;;;;;14.53;59.97;101978.41;5010877;28;20037;-66
2023/05/13 05:30:38;;;;;;;15.15;11.20;;;;;;;14.55;60.08;101976.22;5008375;28;20044;-66
2023/05/13 05:33:04;;;;;;;13.48;11.20;;;;;;;14.59;60.18;101978.25;5013503;28;20584;-68
2023/05/13 05:35:29;;;;;;;12.95;10.63;;;;;;;14.63;60.37;101987.00;5013122;28;20038;-67
2023/05/13 05:37:55;;;;;;;12.95;10.70;;;;;;;14.66;60.35;101986.50;5010037;28;20156;-66
2023/05/13 05:40:20;;;;;;;14.52;10.60;;;;;;;14.67;60.34;101986.22;5009495;28;20034;-67
2023/05/13 05:42:46;;;;;;;14.30;10.95;;;;;;;14.72;60.25;101988.25;5026340;28;20155;-66
2023/05/13 05:45:11;;;;;;;15.32;11.48;;;;;;;14.67;60.51;101993.75;5013724;28;20476;-67
2023/05/13 05:47:36;;;;;;;11.82;10.73;;;;;;;14.75;60.18;101990.56;5012553;28;20517;-66
2023/05/13 05:50:02;;;;;;;12.05;10.95;;;;;;;14.75;60.40;101992.50;5010369;28;20037;-67
2023/05/13 05:52:27;;;;;;;12.80;11.13;;;;;;;14.75;60.80;101998.09;5009841;28;20030;-67
2023/05/13 05:54:52;;;;;;;12.10;11.00;;;;;;;14.79;60.88;101999.28;5010561;28;20038;-66
2023/05/13 05:57:18;;;;;;;12.95;11.55;;;;;;;14.82;60.66;102002.41;5009587;28;20053;-66
2023/05/13 05:59:43;;;;;;;12.20;10.95;;;;;;;14.92;60.71;102001.72;5024866;28;20041;-66
2023/05/13 06:02:08;;;;;;;16.80;11.80;;;;;;;15.00;60.55;101997.66;5010460;28;20037;-66
2023/05/13 06:04:34;;;;;;;13.98;11.07;;;;;;;15.07;60.27;102003.94;5010803;28;20430;-66
2023/05/13 06:06:59;;;;;;;16.02;11.50;;;;;;;15.13;60.47;101991.69;5009314;28;20057;-66
2023/05/13 06:09:24;;;;;;;12.30;11.13;;;;;;;15.20;59.96;101998.81;5009029;28;20041;-66
2023/05/13 06:11:49;;;;;;;12.50;11.20;;;;;;;15.23;59.98;101991.88;5010068;28;20096;-66
2023/05/13 06:14:15;;;;;;;13.32;11.88;;;;;;;15.28;59.91;101994.72;5010084;28;20700;-66
2023/05/13 06:16:41;;;;;;;13.27;11.98;;;;;;;15.19;59.75;101994.34;5010766;28;20042;-66
2023/05/13 06:19:06;;;;;;;14.02;11.30;;;;;;;15.18;60.06;101997.41;5009807;28;20529;-66
2023/05/13 06:21:32;;;;;;;15.50;12.27;;;;;;;15.11;60.21;102014.34;5014296;28;20036;-66
2023/05/13 06:23:57;;;;;;;13.15;11.95;;;;;;;15.17;60.36;102001.31;5030492;28;20052;-66
2023/05/13 06:26:22;;;;;;;15.20;11.85;;;;;;;15.24;60.25;102010.34;5027199;28;20543;-67
2023/05/13 06:28:47;;;;;;;17.58;11.95;;;;;;;15.35;60.75;102003.78;5020372;28;20040;-66
2023/05/13 06:31:13;;;;;;;15.07;11.85;;;;;;;15.42;60.19;102007.25;5013753;28;20022;-66
2023/05/13 06:33:39;;;;;;;13.27;11.93;;;;;;;15.39;60.31;102001.34;5013426;28;20034;-66
2023/05/13 06:36:04;;;;;;;13.25;11.88;;;;;;;15.49;60.24;102009.88;5016277;28;20025;-66
2023/05/13 06:38:30;;;;;;;12.77;11.60;;;;;;;15.56;60.43;102015.28;5034085;28;20065;-67
2023/05/13 06:40:55;;;;;;;13.35;11.68;;;;;;;15.51;60.00;102004.88;5031167;28;20037;-66
2023/05/13 06:43:20;;;;;;;13.50;11.82;;;;;;;15.49;60.07;102011.84;5030352;28;20779;-66
2023/05/13 06:45:46;;;;;;;16.27;12.07;;;;;;;15.49;60.33;102011.84;5032985;28;20021;-66
2023/05/13 06:48:12;;;;;;;13.50;11.77;;;;;;;15.44;60.55;102019.06;5032911;28;20467;-66
2023/05/13 06:50:37;;;;;;;13.40;12.00;;;;;;;15.55;60.54;102013.59;5032231;28;20404;-66
2023/05/13 06:53:02;;;;;;;13.45;11.90;;;;;;;15.60;60.21;102022.06;5033667;28;20083;-66
2023/05/13 06:55:28;;;;;;;12.25;11.05;;;;;;;15.66;60.23;102024.72;5032542;28;20068;-66
2023/05/13 06:57:53;;;;;;;14.57;12.23;;;;;;;15.70;59.76;102020.28;5033424;28;20473;-66
2023/05/13 07:00:19;;;;;;;14.48;12.00;;;;;;;15.72;60.09;102017.25;5016911;28;20450;-66
2023/05/13 07:02:44;;;;;;;13.43;12.02;;;;;;;15.74;60.22;102012.22;5012842;28;20034;-66
2023/05/13 07:05:11;;;;;;;14.02;12.32;;;;;;;15.79;60.56;102023.47;5013664;28;20046;-66
2023/05/13 07:07:36;;;;;;;14.65;12.65;;;;;;;15.86;60.31;102018.53;5013248;28;21126;-66
2023/05/13 07:10:02;;;;;;;16.48;11.95;;;;;;;15.84;59.96;102025.50;5016546;28;20029;-66
2023/05/13 07:12:27;;;;;;;13.38;11.98;;;;;;;15.81;60.11;102020.44;5015715;28;20658;-66
2023/05/13 07:14:52;;;;;;;16.10;12.52;;;;;;;15.78;60.56;102015.34;5011436;28;20083;-67
2023/05/13 07:17:17;;;;;;;13.95;12.27;;;;;;;15.70;60.55;102017.47;5016718;28;20033;-66
2023/05/13 07:19:43;;;;;;;14.73;13.23;;;;;;;15.71;60.92;102021.13;5008520;28;20021;-67
2023/05/13 07:22:08;;;;;;;14.40;12.90;;;;;;;15.66;60.89;102021.06;5027535;28;20036;-66
2023/05/13 07:24:33;;;;;;;15.38;12.85;;;;;;;15.65;61.07;102022.19;5030992;28;20029;-66
2023/05/13 07:27:00;;;;;;;14.23;12.73;;;;;;;15.71;61.35;102021.13;5026239;28;20022;-66
2023/05/13 07:29:25;;;;;;;14.20;12.73;;;;;;;15.75;61.17;102016.69;5014234;28;20065;-67
2023/05/13 07:31:50;;;;;;;14.05;12.75;;;;;;;15.74;61.42;102012.22;5021501;28;20073;-67
2023/05/13 07:34:16;;;;;;;14.60;13.20;;;;;;;15.79;61.68;102012.28;5020805;28;20057;-67
2023/05/13 07:36:41;;;;;;;16.17;12.90;;;;;;;15.86;61.74;102009.28;5008053;28;20115;-67
2023/05/13 07:39:07;;;;;;;14.38;13.00;;;;;;;15.91;61.58;102012.16;5031224;28;20033;-67
2023/05/13 07:41:33;;;;;;;13.93;12.55;;;;;;;15.97;61.42;102007.47;5025825;28;20761;-67
2023/05/13 07:43:58;;;;;;;14.50;13.00;;;;;;;16.08;61.32;102012.09;5021776;28;20533;-67
2023/05/13 07:46:24;;;;;;;14.07;12.48;;;;;;;16.21;60.16;102020.06;5014552;28;20084;-67
2023/05/13 07:48:49;;;;;;;13.52;12.07;;;;;;;16.37;60.29;102019.13;5014789;28;20112;-67
2023/05/13 07:51:17;;;;;;;14.85;13.13;;;;;;;16.50;60.22;102025.41;5011876;28;20153;-67
2023/05/13 07:53:43;;;;;;;13.75;11.95;;;;;;;16.60;59.16;102015.16;5012280;28;20450;-67
2023/05/13 07:56:09;;;;;;;13.55;12.13;;;;;;;16.69;58.87;102023.94;5012589;28;20053;-67
2023/05/13 07:58:34;;;;;;;14.38;12.50;;;;;;;16.79;59.20;102014.81;5011990;28;20046;-67
2023/05/13 08:00:59;;;;;;;16.88;12.63;;;;;;;16.87;58.17;102017.97;5015371;28;20413;-67
2023/05/13 08:03:25;;;;;;;14.48;11.98;;;;;;;16.92;58.14;102015.22;5030899;28;20120;-68
2023/05/13 08:05:50;;;;;;;14.77;12.23;;;;;;;16.95;57.80;102019.44;5015355;28;20033;-67
2023/05/13 08:08:15;;;;;;;14.48;13.00;;;;;;;17.01;58.06;102026.78;5012270;28;20041;-67
2023/05/13 08:10:40;;;;;;;13.77;12.38;;;;;;;16.96;58.30;102023.09;5011946;28;20030;-67
2023/05/13 08:13:06;;;;;;;16.00;12.57;;;;;;;16.95;58.89;102021.41;5010602;28;20109;-67
2023/05/13 08:15:31;;;;;;;13.70;12.10;;;;;;;17.00;58.32;102016.69;5011712;28;20064;-67
2023/05/13 08:17:56;;;;;;;13.70;12.30;;;;;;;17.12;58.76;102014.53;5021901;28;20063;-67
2023/05/13 08:20:28;;;;;;;14.38;11.93;;;;;;;17.26;58.35;102019.69;5025656;28;20018;-67
2023/05/13 08:22:53;;;;;;;12.98;11.77;;;;;;;17.35;57.68;102023.66;5022312;28;20030;-67
2023/05/13 08:25:18;;;;;;;13.60;11.75;;;;;;;17.40;57.49;102024.53;5011697;28;20319;-67
2023/05/13 08:27:44;;;;;;;12.52;11.27;;;;;;;17.49;56.99;102021.22;5011598;28;20050;-67
2023/05/13 08:30:09;;;;;;;13.93;11.98;;;;;;;17.56;56.98;102025.47;5011607;28;20401;-65
2023/05/13 08:32:35;;;;;;;15.52;11.68;;;;;;;17.59;56.89;102029.72;5011511;28;20117;-65
2023/05/13 08:35:00;;;;;;;16.27;12.55;;;;;;;17.60;57.18;102014.56;5011823;28;20029;-65
2023/05/13 08:37:25;;;;;;;12.95;11.48;;;;;;;17.70;57.77;102014.63;5011464;28;20041;-66
2023/05/13 08:39:51;;;;;;;14.32;11.82;;;;;;;17.77;56.54;102015.25;5015356;28;20121;-66
2023/05/13 08:42:20;;;;;;;13.73;11.68;;;;;;;17.82;56.44;102014.44;5022162;28;20030;-66
2023/05/13 08:44:46;;;;;;;16.23;11.55;;;;;;;17.93;56.68;102024.59;5018332;28;20120;-66
2023/05/13 08:47:23;;;;;;;13.18;11.40;;;;;;;18.00;57.18;102018.72;5010980;28;20454;-66
2023/05/13 08:49:49;;;;;;;14.85;12.40;;;;;;;18.07;57.53;102025.75;5010876;28;20456;-66
2023/05/13 08:52:16;;;;;;;13.90;12.38;;;;;;;18.18;57.85;102023.00;5011141;28;20030;-66
2023/05/13 08:54:42;;;;;;;13.05;11.73;;;;;;;18.22;57.28;102022.16;5010509;28;20105;-66
2023/05/13 08:57:08;;;;;;;13.25;11.90;;;;;;;18.29;56.74;102022.75;5011192;28;20041;-66
2023/05/13 08:59:33;;;;;;;13.73;11.90;;;;;;;18.35;56.20;102024.47;5011989;28;20045;-66
2023/05/13 09:02:02;;;;;;;13.05;11.65;;;;;;;18.34;54.67;102011.53;5030517;28;20069;-66
2023/05/13 09:04:28;;;;;;;13.18;11.85;;;;;;;18.43;55.07;102019.41;5031142;28;20030;-66
2023/05/13 09:06:53;;;;;;;13.15;11.93;;;;;;;18.46;54.84;102016.03;5030475;28;20067;-65
2023/05/13 09:09:18;;;;;;;13.52;12.13;;;;;;;18.52;55.97;102017.75;5026910;28;20029;-65
2023/05/13 09:11:47;;;;;;;14.15;12.68;;;;;;;18.57;55.24;102014.94;5011464;28;20069;-65
2023/05/13 09:14:13;;;;;;;8.18;6.80;;;;;;;18.78;58.42;102013.03;5011619;28;20537;-64
2023/05/13 09:16:38;;;;;;;10.45;8.57;;;;;;;18.86;56.39;102010.53;5016310;28;20504;-65
2023/05/13 09:19:05;;;;;;;13.50;12.20;;;;;;;18.91;55.37;102011.66;5012343;28;20068;-62
2023/05/13 09:21:34;;;;;;;9.02;8.15;;;;;;;19.06;57.10;102017.25;5012927;28;20041;-65
2023/05/13 09:24:12;;;;;;;12.57;11.27;;;;;;;19.09;56.59;102013.88;5014773;28;20026;-65
2023/05/13 09:26:40;;;;;;;8.77;7.78;;;;;;;19.25;56.16;102012.72;5010521;28;20120;-66
2023/05/13 09:29:23;;;;;;;13.30;10.50;;;;;;;19.20;54.83;102000.63;5009650;28;20030;-66
2023/05/13 09:31:59;;;;;;;12.10;10.25;;;;;;;19.30;55.16;102003.47;5010412;28;20558;-65
2023/05/13 09:34:32;;;;;;;12.43;11.23;;;;;;;19.32;53.48;102007.66;5009859;28;20018;-65
2023/05/13 09:37:02;;;;;;;13.65;10.77;;;;;;;19.36;53.21;102005.13;5010869;28;20030;-63
2023/05/13 09:39:29;;;;;;;13.40;11.98;;;;;;;19.32;53.44;101999.22;5019043;28;20021;-65
2023/05/13 09:41:54;;;;;;;13.77;12.35;;;;;;;19.38;54.59;102000.91;5025142;28;20036;-65
2023/05/13 09:44:21;;;;;;;11.07;9.80;;;;;;;19.44;54.94;102001.72;5007044;28;20045;-65
2023/05/13 09:46:46;;;;;;;11.18;9.27;;;;;;;19.54;54.89;101998.06;5021553;28;20033;-65
2023/05/13 09:49:14;;;;;;;13.82;9.50;;;;;;;19.58;54.54;101990.72;5025816;28;20079;-65
2023/05/13 09:51:41;;;;;;;13.55;12.07;;;;;;;19.62;53.41;101991.84;5014929;28;20069;-64
2023/05/13 09:54:06;;;;;;;9.93;8.93;;;;;;;19.71;54.43;101995.75;5010150;28;20034;-66
2023/05/13 09:56:34;;;;;;;12.10;9.73;;;;;;;19.73;54.05;101990.69;5012070;28;20049;-65
2023/05/13 09:59:01;;;;;;;12.23;10.30;;;;;;;19.82;53.70;101988.97;5022477;28;20029;-61
2023/05/13 10:01:27;;;;;;;16.63;9.88;;;;;;;19.91;54.25;101988.38;5020230;28;20025;-65
2023/05/13 10:03:58;;;;;;;12.18;11.02;;;;;;;19.94;52.40;101987.78;5015287;28;20103;-65
2023/05/13 10:06:27;;;;;;;12.82;10.25;;;;;;;19.93;52.87;101981.31;5028538;28;20026;-64
2023/05/13 10:08:53;;;;;;;11.25;9.38;;;;;;;19.99;52.82;101982.13;5032861;28;20022;-65
2023/05/13 10:11:19;;;;;;;12.07;10.38;;;;;;;20.03;52.54;101977.59;5024993;28;20022;-65
2023/05/13 10:13:51;;;;;;;11.15;9.15;;;;;;;20.10;52.29;101969.66;5014016;28;20041;-66
2023/05/13 10:16:17;;;;;;;;;;;;;;;20.09;53.60;101970.81;5021930;28;20030;-65
2023/05/13 10:18:44;;;;;;;10.50;9.18;;;;;;;20.17;52.84;101970.19;5013333;28;19952;-64
2023/05/13 10:21:11;;;;;;;11.40;8.98;;;;;;;20.21;50.83;101968.47;5023114;28;20049;-63
2023/05/13 10:23:37;;;;;;;6.53;5.90;;;;;;;20.31;51.01;101967.56;5021374;28;20030;-64
2023/05/13 10:26:02;;;;;;;9.38;8.30;;;;;;;20.32;49.83;101970.09;5028685;28;20493;-63
2023/05/13 10:28:28;;;;;;;10.57;9.23;;;;;;;20.35;51.33;101963.84;5032027;28;20456;-65
2023/05/13 10:30:53;;;;;;;10.98;8.82;;;;;;;20.36;49.81;101964.72;5016617;28;20033;-64
2023/05/13 10:33:19;;;;;;;10.90;9.15;;;;;;;20.45;51.12;101968.59;5018978;28;20022;-65
2023/05/13 10:36:00;;;;;;;10.45;9.38;;;;;;;20.46;51.39;101969.44;5022007;28;20030;-64
2023/05/13 10:39:03;;;;;;;12.27;8.15;;;;;;;20.49;51.75;101964.09;5014623;28;20022;-65
2023/05/13 10:41:56;;;;;;;9.35;8.35;;;;;;;20.54;52.10;101968.84;5012950;28;20056;-64
2023/05/13 10:44:22;;;;;;;9.32;8.02;;;;;;;20.59;49.24;101964.03;5016105;28;20128;-65
2023/05/13 10:46:48;;;;;;;10.85;8.32;;;;;;;20.60;48.66;101964.88;5016281;28;20116;-66
2023/05/13 10:49:14;;;;;;;9.65;7.57;;;;;;;20.64;49.34;101957.50;5032874;28;20060;-65
2023/05/13 10:51:45;;;;;;;8.30;6.47;;;;;;;20.68;47.16;101955.78;5012686;28;20040;-65
2023/05/13 10:54:18;;;;;;;8.35;5.90;;;;;;;20.71;45.83;101960.84;5015158;28;20120;-66
2023/05/13 10:56:43;;;;;;;10.63;6.68;;;;;;;20.73;46.46;101958.53;5020941;28;20437;-63
2023/05/13 10:59:11;;;;;;;8.40;6.80;;;;;;;20.76;45.47;101957.13;5013200;28;20034;-65
2023/05/13 11:01:45;;;;;;;10.02;5.82;;;;;;;20.79;45.61;101956.53;5013798;28;20392;-65
2023/05/13 11:04:16;;;;;;;8.88;5.95;;;;;;;20.83;46.54;101955.66;5021293;28;20040;-64
2023/05/13 11:06:45;;;;;;;9.27;5.78;;;;;;;20.94;45.85;101955.53;5029558;28;20032;-63
2023/05/13 11:09:19;;;;;;;7.53;5.28;;;;;;;20.96;45.62;101953.28;5017674;28;20139;-62
2023/05/13 11:11:51;;;;;;;6.60;5.88;;;;;;;20.99;45.15;101952.69;5014045;28;20045;-65
2023/05/13 11:14:21;;;;;;;9.23;6.05;;;;;;;20.99;44.73;101944.22;5017255;28;20044;-61